Latest Weather Observations for Cabramurra

IDN60801

Issued at 11:03 pm EDT Friday 12 February 2016 (issued every 30 minutes, with the page automatically refreshed every 10 minutes)

About weather observations | Map of weather stations | Latest weather observations for NSW | Other Formats
Station Details ID: 072161 Name: CABRAMURRA SMHEA AWS Lat: -35.94 Lon: 148.38 Height: 1482.4 m
Data from the previous 72 hours. | See also: Recent months at Cabramurra
Date/Time
EDT
Temp
°C
App
Temp
°C
Dew
Point
Rel
Hum
%
Delta-T
°C
Wind Press
QNH
hPa
Press
MSL
hPa
Rain
since 9 am
mm
Dir
 
Spd
km/h
Gust
km/h
Spd
kts
Gust
kts
12/11:00pm 17.7 16.7 5.6 45 6.4 CALM 0 0 0 0 - - 0.0
12/10:30pm 17.3 16.2 5.3 45 6.3 CALM 0 0 0 0 - - 0.0
12/10:00pm 17.6 16.5 5.2 44 6.5 CALM 0 0 0 0 - - 0.0
12/09:30pm 17.9 15.6 4.8 42 6.8 WSW 6 7 3 4 - - 0.0
12/09:00pm 17.7 15.4 5.0 43 6.6 WSW 6 9 3 5 - - 0.0
12/08:30pm 17.8 16.7 5.1 43 6.6 CALM 0 0 0 0 - - 0.0
12/08:00pm 19.2 18.1 4.9 39 7.5 CALM 0 6 0 3 - - 0.0
12/07:30pm 20.5 17.6 4.9 36 8.2 W 9 13 5 7 - - 0.0
12/07:00pm 21.2 18.5 5.6 36 8.4 WNW 9 13 5 7 - - 0.0
12/06:30pm 21.5 17.8 4.6 33 8.9 WSW 13 20 7 11 - - 0.0
12/06:00pm 22.2 19.5 5.6 34 9.0 WNW 9 19 5 10 - - 0.0
12/05:30pm 22.1 17.8 5.1 33 9.1 WNW 17 28 9 15 - - 0.0
12/05:00pm 21.9 17.9 4.9 33 9.0 SW 15 24 8 13 - - 0.0
12/04:30pm 22.1 17.5 3.7 30 9.6 WSW 17 24 9 13 - - 0.0
12/04:00pm 21.9 16.9 3.6 30 9.5 W 19 26 10 14 - - 0.0
12/03:30pm 22.0 16.8 2.2 27 10.0 WSW 19 26 10 14 - - 0.0
12/03:00pm 22.0 17.1 4.1 31 9.4 W 19 28 10 15 - - 0.0
12/02:30pm 21.4 16.5 4.0 32 9.1 W 19 30 10 16 - - 0.0
12/02:00pm 21.2 16.7 6.3 38 8.1 WNW 19 28 10 15 - - 0.0
12/01:30pm 20.8 16.4 6.7 40 7.7 WSW 19 28 10 15 - - 0.0
12/01:00pm 21.0 17.5 5.4 36 8.3 WSW 13 24 7 13 - - 0.0
12/12:30pm 21.0 17.5 5.4 36 8.3 W 13 20 7 11 - - 0.0
12/12:00pm 20.6 18.6 8.6 46 6.8 NW 9 15 5 8 - - 0.0
12/11:30am 19.9 17.5 5.2 38 7.8 WSW 7 11 4 6 - - 0.0
12/11:00am 19.1 17.7 9.0 52 5.7 W 6 9 3 5 - - 0.0
12/10:30am 18.0 16.4 8.8 55 5.1 NW 7 11 4 6 - - 0.0
12/10:00am 17.7 16.2 9.3 58 4.7 NW 7 11 4 6 - - 0.0
12/09:30am 17.5 17.1 8.4 55 5.0 CALM 0 6 0 3 - - 0.0
12/09:00am 16.5 14.7 7.2 54 5.0 NW 6 7 3 4 - - 0.0
12/08:30am 16.2 14.8 7.2 55 4.8 NNW 4 7 2 4 - - 0.0
12/08:00am 15.7 15.2 8.0 60 4.2 CALM 0 0 0 0 - - 0.0
12/07:30am 15.4 14.2 8.2 62 3.9 NNW 4 6 2 3 - - 0.0
12/07:00am 14.4 12.9 8.6 68 3.2 N 6 7 3 4 - - 0.0
12/06:30am 14.0 12.5 8.4 69 3.0 NNE 6 7 3 4 - - 0.0
12/06:00am 13.9 12.2 8.5 70 2.9 NNE 7 7 4 4 - - 0.0
12/05:30am 13.9 12.4 8.3 69 3.0 NNE 6 7 3 4 - - 0.0
12/05:00am 14.3 13.9 8.3 67 3.3 CALM 0 0 0 0 - - 0.0
12/04:30am 14.7 14.3 8.2 65 3.5 CALM 0 0 0 0 - - 0.0
12/04:00am 14.3 13.8 8.0 66 3.4 CALM 0 0 0 0 - - 0.0
12/03:30am 13.7 12.0 8.3 70 2.9 E 7 9 4 5 - - 0.0
12/03:00am 13.1 10.6 9.7 80 1.9 E 13 17 7 9 - - 0.0
12/02:30am 12.9 10.8 11.0 88 1.1 E 13 17 7 9 - - 0.0
12/02:00am 12.5 9.8 11.6 94 0.5 E 17 22 9 12 - - 0.0
12/01:30am 12.8 9.7 11.5 92 0.7 E 19 22 10 12 - - 0.0
12/01:00am 13.1 9.5 11.7 91 0.8 E 22 28 12 15 - - 0.0
12/12:30am 13.5 9.5 11.7 89 1.0 E 24 32 13 17 - - 0.0
12/12:00am 13.6 10.0 11.7 88 1.1 E 22 33 12 18 - - 0.0
 
Date/Time
EDT
Temp
°C
App
Temp
°C
Dew
Point
Rel
Hum
%
Delta-T
°C
Wind Press
QNH
hPa
Press
MSL
hPa
Rain
since 9 am
mm
Dir
 
Spd
km/h
Gust
km/h
Spd
kts
Gust
kts
11/11:30pm 15.2 11.7 8.9 66 3.5 E 17 24 9 13 - - 0.0
11/11:00pm 15.1 10.1 9.7 70 3.0 E 26 33 14 18 - - 0.0
11/10:30pm 14.6 8.7 10.6 77 2.3 E 32 39 17 21 - - 0.0
11/10:00pm 14.3 8.5 10.9 80 1.9 ESE 32 39 17 21 - - 0.0
11/09:30pm 15.4 10.5 10.0 70 3.0 E 26 32 14 17 - - 0.0
11/09:00pm 15.5 10.6 11.3 76 2.4 E 28 33 15 18 - - 0.0
11/08:30pm 15.6 10.7 11.4 76 2.4 E 28 37 15 20 - - 0.0
11/08:26pm 15.7 10.8 11.3 75 2.5 E 28 37 15 20 - - 0.0
11/08:00pm 16.0 13.3 11.6 75 2.6 E 17 30 9 16 - - 0.0
11/07:30pm 17.5 11.4 10.4 63 4.1 ESE 33 44 18 24 - - 0.0
11/07:00pm 18.3 13.9 11.8 66 3.8 ESE 26 33 14 18 - - 0.0
11/06:30pm 18.4 14.1 10.8 61 4.4 ESE 24 32 13 17 - - 0.0
11/06:00pm 19.2 15.8 10.7 58 4.9 ESE 19 26 10 14 - - 0.0
11/05:30pm 20.9 18.5 11.5 55 5.6 SSE 15 22 8 12 - - 0.0
11/05:00pm 22.4 18.9 5.4 33 9.2 W 13 20 7 11 - - 0.0
11/04:30pm 22.7 18.9 6.0 34 9.1 WSW 15 24 8 13 - - 0.0
11/04:00pm 23.1 19.7 6.0 33 9.3 WSW 13 22 7 12 - - 0.0
11/03:30pm 22.8 20.7 5.7 33 9.3 W 6 17 3 9 - - 0.0
11/03:00pm 21.7 19.1 6.0 36 8.5 WSW 9 15 5 8 - - 0.0
11/02:30pm 22.7 20.2 8.0 39 8.3 W 11 17 6 9 - - 0.0
11/02:00pm 21.2 17.9 6.3 38 8.1 W 13 19 7 10 - - 0.0
11/01:30pm 21.2 18.1 7.1 40 7.8 W 13 17 7 9 - - 0.0
11/01:00pm 21.3 19.1 6.4 38 8.1 W 7 17 4 9 - - 0.0
11/12:30pm 21.0 19.3 9.9 49 6.4 WNW 9 15 5 8 - - 0.0
11/12:00pm 20.3 19.0 10.1 52 5.9 W 7 11 4 6 - - 0.0
11/11:30am 19.4 17.4 8.7 50 6.0 NW 9 11 5 6 - - 0.0
11/11:00am 19.0 18.2 11.8 63 4.3 WNW 7 9 4 5 - - 0.0
11/10:30am 18.9 18.5 11.2 61 4.5 NNW 4 9 2 5 - - 0.0
11/10:00am 18.7 17.7 10.3 58 4.8 N 6 9 3 5 - - 0.0
11/09:30am 18.5 17.1 9.6 56 5.1 NE 7 11 4 6 - - 0.0
11/09:00am 18.1 16.7 8.7 54 5.2 NE 6 7 3 4 - - 0.0
11/08:30am 17.0 15.6 9.4 61 4.3 E 7 9 4 5 - - 0.0
11/08:00am 15.2 13.8 9.6 69 3.1 E 7 9 4 5 - - 0.0
11/07:30am 15.4 13.5 9.1 66 3.5 E 9 13 5 7 - - 0.0
11/07:00am 14.5 11.8 8.9 69 3.1 E 13 17 7 9 - - 0.0
11/06:30am 14.0 11.6 8.8 71 2.8 E 11 17 6 9 - - 0.0
11/06:00am 13.8 10.9 8.2 69 3.0 ESE 13 17 7 9 - - 0.0
11/05:30am 14.2 11.9 7.5 64 3.6 E 9 11 5 6 - - 0.0
11/05:00am 14.6 12.3 7.4 62 3.8 E 9 11 5 6 - - 0.0
11/04:30am 13.8 11.3 8.4 70 2.9 E 11 11 6 6 - - 0.0
11/04:00am 13.7 11.4 9.0 73 2.6 E 11 11 6 6 - - 0.0
11/03:30am 14.3 11.7 9.3 72 2.8 E 13 17 7 9 - - 0.0
11/03:00am 14.1 11.3 9.9 76 2.3 E 15 20 8 11 - - 0.0
11/02:30am 13.8 11.5 10.6 81 1.8 ESE 13 19 7 10 - - 0.0
11/02:00am 13.9 10.7 11.2 84 1.5 E 19 24 10 13 - - 0.0
11/01:30am 13.8 10.5 11.7 87 1.2 E 20 26 11 14 - - 0.0
11/01:00am 14.2 11.1 12.2 88 1.2 E 20 28 11 15 - - 0.0
11/12:30am 14.3 11.5 12.7 90 0.9 ESE 19 28 10 15 - - 0.0
11/12:00am 14.5 12.2 12.9 90 0.9 E 17 24 9 13 - - 0.0
 
Date/Time
EDT
Temp
°C
App
Temp
°C
Dew
Point
Rel
Hum
%
Delta-T
°C
Wind Press
QNH
hPa
Press
MSL
hPa
Rain
since 9 am
mm
Dir
 
Spd
km/h
Gust
km/h
Spd
kts
Gust
kts
10/11:30pm 14.5 10.6 13.2 92 0.8 ESE 26 35 14 19 - - 0.0
10/11:00pm 14.9 10.4 12.6 86 1.4 ESE 28 37 15 20 - - 0.0
10/10:42pm 15.8 12.5 9.5 66 3.5 ESE 17 33 9 18 - - 0.0
10/10:30pm 18.3 15.6 5.5 43 6.7 SE 9 11 5 6 - - 0.0
10/10:00pm 18.2 15.8 7.0 48 6.1 SE 9 11 5 6 - - 0.0
10/09:30pm 18.2 16.1 6.7 47 6.2 SSE 7 9 4 5 - - 0.0
10/09:00pm 18.0 17.3 7.1 49 5.9 CALM 0 6 0 3 - - 0.0
10/08:30pm 17.6 15.9 7.4 51 5.5 WSW 6 7 3 4 - - 0.0
10/08:00pm 18.6 17.5 7.1 47 6.2 WSW 2 7 1 4 - - 0.0
10/07:30pm 20.4 18.1 7.4 43 7.2 WSW 9 15 5 8 - - 0.0
10/07:00pm 20.0 17.2 7.1 43 7.1 WSW 11 17 6 9 - - 0.0
10/06:30pm 20.5 16.8 6.1 39 7.8 WSW 15 22 8 12 - - 0.0
10/06:00pm 21.4 17.8 6.9 39 8.0 WSW 15 26 8 14 - - 0.0
10/05:30pm 22.4 18.8 6.6 36 8.7 W 15 24 8 13 - - 0.0
10/05:00pm 21.6 17.1 4.2 32 9.1 WSW 17 24 9 13 - - 0.0
10/04:30pm 22.0 18.9 8.9 43 7.5 WNW 15 22 8 12 - - 0.0
10/04:00pm 21.8 18.6 11.2 51 6.3 WNW 19 24 10 13 - - 0.0
10/03:30pm 21.0 18.0 10.8 52 6.0 WNW 17 26 9 14 - - 0.0
10/03:00pm 21.7 18.4 10.8 50 6.4 WNW 19 32 10 17 - - 0.0
10/02:30pm 20.9 16.8 10.1 50 6.3 W 22 32 12 17 - - 0.0
10/02:00pm 20.9 17.7 9.8 49 6.4 W 17 26 9 14 - - 0.0
10/01:30pm 20.9 18.4 12.3 58 5.2 WNW 17 26 9 14 - - 0.0
10/01:00pm 19.9 16.3 10.0 53 5.7 W 19 35 10 19 - - 0.0
10/12:30pm 19.3 16.6 11.8 62 4.4 W 17 26 9 14 - - 0.0
10/12:00pm 19.5 18.0 14.1 71 3.3 W 15 26 8 14 - - 0.0
10/11:30am 18.2 17.0 12.9 71 3.2 W 11 20 6 11 - - 0.0
10/11:00am 17.9 16.2 12.6 71 3.2 WNW 13 20 7 11 - - 0.0
10/10:30am 16.9 15.4 12.0 73 2.9 WNW 11 15 6 8 - - 0.0
10/10:00am 17.0 15.3 12.5 75 2.7 NW 13 19 7 10 - - 0.0
10/09:30am 16.7 15.2 12.0 74 2.8 NW 11 15 6 8 - - 0.0
10/09:00am 16.4 15.5 11.3 72 3.0 NW 7 13 4 7 - - 0.0
10/08:30am 15.7 14.5 11.5 76 2.4 NW 9 13 5 7 - - 0.0
10/08:00am 15.0 13.5 10.6 75 2.5 N 9 13 5 7 - - 0.0
10/07:30am 14.4 13.0 10.8 79 2.1 N 9 13 5 7 - - 0.0
10/07:00am 14.0 12.2 10.8 81 1.8 N 11 15 6 8 - - 0.0
10/06:30am 14.2 11.4 10.0 76 2.4 NNW 15 24 8 13 - - 0.0
10/06:00am 14.6 11.7 9.8 73 2.7 N 15 22 8 12 - - 0.0
10/05:30am 15.1 12.5 9.5 69 3.1 N 13 17 7 9 - - 0.0
10/05:00am 15.3 13.1 9.2 67 3.4 NNE 11 15 6 8 - - 0.0
10/04:30am 15.5 13.5 8.7 64 3.7 N 9 11 5 6 - - 0.0
10/04:00am 15.9 13.5 8.6 62 4.0 N 11 15 6 8 - - 0.0
10/03:30am 16.0 13.8 7.7 58 4.5 N 9 13 5 7 - - 0.0
10/03:00am 15.7 13.2 8.4 62 4.0 NNE 11 13 6 7 - - 0.0
10/02:30am 16.3 14.3 8.5 60 4.3 N 9 11 5 6 - - 0.0
10/02:00am 16.2 14.3 7.7 57 4.6 N 7 9 4 5 - - 0.0
10/01:30am 16.5 14.8 7.7 56 4.8 WNW 6 7 3 4 - - 0.0
10/01:00am 15.9 14.0 6.6 54 4.9 WNW 6 7 3 4 - - 0.0
10/12:30am 16.3 15.7 7.5 56 4.8 CALM 0 4 0 2 - - 0.0
10/12:00am 16.5 14.3 7.7 56 4.8 SW 9 13 5 7 - - 0.0
 
Date/Time
EDT
Temp
°C
App
Temp
°C
Dew
Point
Rel
Hum
%
Delta-T
°C
Wind Press
QNH
hPa
Press
MSL
hPa
Rain
since 9 am
mm
Dir
 
Spd
km/h
Gust
km/h
Spd
kts
Gust
kts
09/11:30pm 16.1 14.3 7.8 58 4.5 WSW 7 9 4 5 - - 0.0

Other Formats:

Comma delimited format used in spreadsheet applications
http://www.bom.gov.au/fwo/IDN60801/IDN60801.95916.axf

JavaScript Object Notation format (JSON) in row-major order
http://www.bom.gov.au/fwo/IDN60801/IDN60801.95916.json